sensor_id;sensor_type;location;lat;lon;timestamp;temperature;humidity
53962;DHT22;39868;53.398;6.564;2022-09-16T00:02:12;14.50;79.00
53962;DHT22;39868;53.398;6.564;2022-09-16T00:04:40;14.60;78.40
53962;DHT22;39868;53.398;6.564;2022-09-16T00:07:07;14.60;78.40
53962;DHT22;39868;53.398;6.564;2022-09-16T00:09:35;14.60;78.30
53962;DHT22;39868;53.398;6.564;2022-09-16T00:12:04;14.60;78.40
53962;DHT22;39868;53.398;6.564;2022-09-16T00:14:32;14.60;78.40
53962;DHT22;39868;53.398;6.564;2022-09-16T00:16:59;14.60;78.40
53962;DHT22;39868;53.398;6.564;2022-09-16T00:19:26;14.60;78.50
53962;DHT22;39868;53.398;6.564;2022-09-16T00:21:54;14.60;78.50
53962;DHT22;39868;53.398;6.564;2022-09-16T00:24:21;14.60;78.50
53962;DHT22;39868;53.398;6.564;2022-09-16T00:26:48;14.70;78.60
53962;DHT22;39868;53.398;6.564;2022-09-16T00:29:16;14.70;78.50
53962;DHT22;39868;53.398;6.564;2022-09-16T00:31:43;14.70;78.40
53962;DHT22;39868;53.398;6.564;2022-09-16T00:34:10;14.70;77.90
53962;DHT22;39868;53.398;6.564;2022-09-16T00:36:38;14.70;77.70
53962;DHT22;39868;53.398;6.564;2022-09-16T00:39:05;14.70;77.30
53962;DHT22;39868;53.398;6.564;2022-09-16T00:41:33;14.70;76.90
53962;DHT22;39868;53.398;6.564;2022-09-16T00:44:02;14.70;76.50
53962;DHT22;39868;53.398;6.564;2022-09-16T00:46:33;14.70;76.00
53962;DHT22;39868;53.398;6.564;2022-09-16T00:49:04;14.80;76.00
53962;DHT22;39868;53.398;6.564;2022-09-16T00:51:32;14.80;76.10
53962;DHT22;39868;53.398;6.564;2022-09-16T00:54:00;14.80;75.90
53962;DHT22;39868;53.398;6.564;2022-09-16T00:56:30;14.90;75.70
53962;DHT22;39868;53.398;6.564;2022-09-16T00:59:05;14.90;77.00
53962;DHT22;39868;53.398;6.564;2022-09-16T01:01:32;14.90;77.40
53962;DHT22;39868;53.398;6.564;2022-09-16T01:04:05;14.90;77.20
53962;DHT22;39868;53.398;6.564;2022-09-16T01:06:35;14.80;77.30
53962;DHT22;39868;53.398;6.564;2022-09-16T01:09:04;14.70;77.30
53962;DHT22;39868;53.398;6.564;2022-09-16T01:11:32;14.60;77.50
53962;DHT22;39868;53.398;6.564;2022-09-16T01:13:59;14.60;77.80
53962;DHT22;39868;53.398;6.564;2022-09-16T01:16:56;14.50;77.90
53962;DHT22;39868;53.398;6.564;2022-09-16T01:21:56;14.40;78.10
53962;DHT22;39868;53.398;6.564;2022-09-16T01:28:10;14.40;78.20
53962;DHT22;39868;53.398;6.564;2022-09-16T01:33:04;14.30;78.30
53962;DHT22;39868;53.398;6.564;2022-09-16T01:43:20;14.20;79.20
53962;DHT22;39868;53.398;6.564;2022-09-16T01:45:55;14.20;79.40
53962;DHT22;39868;53.398;6.564;2022-09-16T01:48:31;14.20;79.30
53962;DHT22;39868;53.398;6.564;2022-09-16T01:53:42;14.20;79.50
53962;DHT22;39868;53.398;6.564;2022-09-16T01:56:19;14.20;79.70
53962;DHT22;39868;53.398;6.564;2022-09-16T01:59:04;14.20;79.60
53962;DHT22;39868;53.398;6.564;2022-09-16T02:01:35;14.20;79.50
53962;DHT22;39868;53.398;6.564;2022-09-16T02:04:06;14.20;79.60
53962;DHT22;39868;53.398;6.564;2022-09-16T02:06:34;14.20;79.40
53962;DHT22;39868;53.398;6.564;2022-09-16T02:09:08;14.20;79.10
53962;DHT22;39868;53.398;6.564;2022-09-16T02:11:36;14.20;78.70
53962;DHT22;39868;53.398;6.564;2022-09-16T02:14:09;14.20;78.50
53962;DHT22;39868;53.398;6.564;2022-09-16T02:16:45;14.30;78.20
53962;DHT22;39868;53.398;6.564;2022-09-16T02:19:16;14.30;78.00
53962;DHT22;39868;53.398;6.564;2022-09-16T02:21:46;14.30;77.60
53962;DHT22;39868;53.398;6.564;2022-09-16T02:24:16;14.30;77.40
53962;DHT22;39868;53.398;6.564;2022-09-16T02:26:45;14.30;77.40
53962;DHT22;39868;53.398;6.564;2022-09-16T02:29:18;14.30;77.60
53962;DHT22;39868;53.398;6.564;2022-09-16T02:31:47;14.30;77.60
53962;DHT22;39868;53.398;6.564;2022-09-16T02:34:37;14.40;77.40
53962;DHT22;39868;53.398;6.564;2022-09-16T02:37:07;14.50;77.40
53962;DHT22;39868;53.398;6.564;2022-09-16T02:39:37;14.50;77.20
53962;DHT22;39868;53.398;6.564;2022-09-16T02:42:05;14.60;76.90
53962;DHT22;39868;53.398;6.564;2022-09-16T02:44:34;14.60;76.40
53962;DHT22;39868;53.398;6.564;2022-09-16T02:47:07;14.70;75.40
53962;DHT22;39868;53.398;6.564;2022-09-16T02:57:30;14.80;72.40
53962;DHT22;39868;53.398;6.564;2022-09-16T02:59:58;14.80;72.70
53962;DHT22;39868;53.398;6.564;2022-09-16T03:02:25;14.80;72.50
53962;DHT22;39868;53.398;6.564;2022-09-16T03:04:53;14.80;72.90
53962;DHT22;39868;53.398;6.564;2022-09-16T03:07:20;14.80;71.30
53962;DHT22;39868;53.398;6.564;2022-09-16T03:09:48;14.80;71.30
53962;DHT22;39868;53.398;6.564;2022-09-16T03:15:49;14.80;71.40
53962;DHT22;39868;53.398;6.564;2022-09-16T03:28:36;14.90;71.40
53962;DHT22;39868;53.398;6.564;2022-09-16T03:31:11;14.90;70.90
53962;DHT22;39868;53.398;6.564;2022-09-16T03:36:27;15.00;70.90
53962;DHT22;39868;53.398;6.564;2022-09-16T03:38:59;15.00;70.40
53962;DHT22;39868;53.398;6.564;2022-09-16T03:41:28;15.00;71.00
53962;DHT22;39868;53.398;6.564;2022-09-16T03:43:56;15.10;71.20
53962;DHT22;39868;53.398;6.564;2022-09-16T03:46:29;15.10;70.50
53962;DHT22;39868;53.398;6.564;2022-09-16T03:48:57;15.10;70.10
53962;DHT22;39868;53.398;6.564;2022-09-16T03:51:25;15.20;70.00
53962;DHT22;39868;53.398;6.564;2022-09-16T03:53:52;15.20;69.20
53962;DHT22;39868;53.398;6.564;2022-09-16T03:56:21;15.20;69.70
53962;DHT22;39868;53.398;6.564;2022-09-16T03:58:49;15.20;70.10
53962;DHT22;39868;53.398;6.564;2022-09-16T04:01:16;15.30;70.60
53962;DHT22;39868;53.398;6.564;2022-09-16T04:03:44;15.30;70.50
53962;DHT22;39868;53.398;6.564;2022-09-16T04:06:11;15.30;70.00
53962;DHT22;39868;53.398;6.564;2022-09-16T04:08:38;15.20;69.10
53962;DHT22;39868;53.398;6.564;2022-09-16T04:11:06;15.20;69.30
53962;DHT22;39868;53.398;6.564;2022-09-16T04:13:34;15.20;68.80
53962;DHT22;39868;53.398;6.564;2022-09-16T04:16:02;15.20;68.50
53962;DHT22;39868;53.398;6.564;2022-09-16T04:18:30;15.20;67.80
53962;DHT22;39868;53.398;6.564;2022-09-16T04:20:58;15.20;68.70
53962;DHT22;39868;53.398;6.564;2022-09-16T04:23:26;15.20;68.50
53962;DHT22;39868;53.398;6.564;2022-09-16T04:25:57;15.20;68.90
53962;DHT22;39868;53.398;6.564;2022-09-16T04:28:25;15.20;69.10
53962;DHT22;39868;53.398;6.564;2022-09-16T04:30:53;15.20;68.10
53962;DHT22;39868;53.398;6.564;2022-09-16T04:33:20;15.20;68.60
53962;DHT22;39868;53.398;6.564;2022-09-16T04:35:48;15.20;68.40
53962;DHT22;39868;53.398;6.564;2022-09-16T04:38:15;15.20;67.60
53962;DHT22;39868;53.398;6.564;2022-09-16T04:40:42;15.20;68.60
53962;DHT22;39868;53.398;6.564;2022-09-16T04:43:10;15.20;69.20
53962;DHT22;39868;53.398;6.564;2022-09-16T04:45:37;15.30;69.30
53962;DHT22;39868;53.398;6.564;2022-09-16T04:48:04;15.30;69.30
53962;DHT22;39868;53.398;6.564;2022-09-16T04:50:32;15.30;69.20
53962;DHT22;39868;53.398;6.564;2022-09-16T04:52:59;15.30;69.20
53962;DHT22;39868;53.398;6.564;2022-09-16T04:55:26;15.30;69.10
53962;DHT22;39868;53.398;6.564;2022-09-16T04:57:54;15.30;69.30
53962;DHT22;39868;53.398;6.564;2022-09-16T05:00:21;15.30;68.80
53962;DHT22;39868;53.398;6.564;2022-09-16T05:02:48;15.30;68.10
53962;DHT22;39868;53.398;6.564;2022-09-16T05:05:16;15.30;67.50
53962;DHT22;39868;53.398;6.564;2022-09-16T05:07:43;15.30;67.60
53962;DHT22;39868;53.398;6.564;2022-09-16T05:10:10;15.30;67.90
53962;DHT22;39868;53.398;6.564;2022-09-16T05:12:38;15.30;68.00
53962;DHT22;39868;53.398;6.564;2022-09-16T05:15:05;15.30;68.50
53962;DHT22;39868;53.398;6.564;2022-09-16T05:17:33;15.30;69.20
53962;DHT22;39868;53.398;6.564;2022-09-16T05:20:16;15.30;71.00
53962;DHT22;39868;53.398;6.564;2022-09-16T05:22:44;15.20;71.00
53962;DHT22;39868;53.398;6.564;2022-09-16T05:25:11;15.10;70.80
53962;DHT22;39868;53.398;6.564;2022-09-16T05:27:39;15.00;71.30
53962;DHT22;39868;53.398;6.564;2022-09-16T05:30:06;14.90;70.60
53962;DHT22;39868;53.398;6.564;2022-09-16T05:32:34;14.80;71.20
53962;DHT22;39868;53.398;6.564;2022-09-16T05:35:01;14.60;71.40
53962;DHT22;39868;53.398;6.564;2022-09-16T05:37:29;14.50;72.30
53962;DHT22;39868;53.398;6.564;2022-09-16T05:39:56;14.50;72.80
53962;DHT22;39868;53.398;6.564;2022-09-16T05:42:23;14.40;73.10
53962;DHT22;39868;53.398;6.564;2022-09-16T05:44:51;14.30;73.20
53962;DHT22;39868;53.398;6.564;2022-09-16T05:47:18;14.20;73.20
53962;DHT22;39868;53.398;6.564;2022-09-16T05:49:46;14.20;73.40
53962;DHT22;39868;53.398;6.564;2022-09-16T05:52:13;14.20;73.60
53962;DHT22;39868;53.398;6.564;2022-09-16T05:54:40;14.20;73.70
53962;DHT22;39868;53.398;6.564;2022-09-16T05:57:08;14.20;74.10
53962;DHT22;39868;53.398;6.564;2022-09-16T05:59:35;14.20;74.40
53962;DHT22;39868;53.398;6.564;2022-09-16T06:02:02;14.30;74.70
53962;DHT22;39868;53.398;6.564;2022-09-16T06:04:30;14.30;74.90
53962;DHT22;39868;53.398;6.564;2022-09-16T06:06:57;14.30;75.00
53962;DHT22;39868;53.398;6.564;2022-09-16T06:09:24;14.30;75.00
53962;DHT22;39868;53.398;6.564;2022-09-16T06:11:52;14.40;73.90
53962;DHT22;39868;53.398;6.564;2022-09-16T06:14:27;14.40;72.80
53962;DHT22;39868;53.398;6.564;2022-09-16T06:16:55;14.40;72.00
53962;DHT22;39868;53.398;6.564;2022-09-16T06:19:22;14.50;71.70
53962;DHT22;39868;53.398;6.564;2022-09-16T06:21:50;14.50;71.10
53962;DHT22;39868;53.398;6.564;2022-09-16T06:24:18;14.50;70.70
53962;DHT22;39868;53.398;6.564;2022-09-16T06:26:46;14.60;70.50
53962;DHT22;39868;53.398;6.564;2022-09-16T06:29:14;14.60;69.40
53962;DHT22;39868;53.398;6.564;2022-09-16T06:31:42;14.60;69.60
53962;DHT22;39868;53.398;6.564;2022-09-16T06:34:13;14.70;69.40
53962;DHT22;39868;53.398;6.564;2022-09-16T06:36:40;14.70;69.40
53962;DHT22;39868;53.398;6.564;2022-09-16T06:39:11;14.80;69.40
53962;DHT22;39868;53.398;6.564;2022-09-16T06:41:39;14.80;68.60
53962;DHT22;39868;53.398;6.564;2022-09-16T06:44:06;14.90;69.10
53962;DHT22;39868;53.398;6.564;2022-09-16T06:46:34;14.90;68.80
53962;DHT22;39868;53.398;6.564;2022-09-16T06:49:01;15.00;67.90
53962;DHT22;39868;53.398;6.564;2022-09-16T06:51:32;15.10;67.70
53962;DHT22;39868;53.398;6.564;2022-09-16T06:54:00;15.10;67.20
53962;DHT22;39868;53.398;6.564;2022-09-16T06:56:28;15.20;67.40
53962;DHT22;39868;53.398;6.564;2022-09-16T06:58:55;15.30;67.80
53962;DHT22;39868;53.398;6.564;2022-09-16T07:01:24;15.30;68.60
53962;DHT22;39868;53.398;6.564;2022-09-16T07:03:51;15.40;68.50
53962;DHT22;39868;53.398;6.564;2022-09-16T07:06:19;15.50;68.60
53962;DHT22;39868;53.398;6.564;2022-09-16T07:08:47;15.60;68.40
53962;DHT22;39868;53.398;6.564;2022-09-16T07:11:15;15.60;67.70
53962;DHT22;39868;53.398;6.564;2022-09-16T07:13:44;15.70;67.80
53962;DHT22;39868;53.398;6.564;2022-09-16T07:16:15;15.70;67.80
53962;DHT22;39868;53.398;6.564;2022-09-16T07:18:42;15.70;67.60
53962;DHT22;39868;53.398;6.564;2022-09-16T07:21:14;15.80;67.90
53962;DHT22;39868;53.398;6.564;2022-09-16T07:23:42;15.90;67.40
53962;DHT22;39868;53.398;6.564;2022-09-16T07:28:40;16.00;67.50
53962;DHT22;39868;53.398;6.564;2022-09-16T07:31:11;16.00;67.00
53962;DHT22;39868;53.398;6.564;2022-09-16T07:33:41;16.10;65.40
53962;DHT22;39868;53.398;6.564;2022-09-16T07:36:09;16.10;64.10
53962;DHT22;39868;53.398;6.564;2022-09-16T07:38:37;16.10;64.20
53962;DHT22;39868;53.398;6.564;2022-09-16T07:41:07;16.20;63.00
53962;DHT22;39868;53.398;6.564;2022-09-16T07:43:35;16.20;62.80
53962;DHT22;39868;53.398;6.564;2022-09-16T07:46:03;16.20;62.90
53962;DHT22;39868;53.398;6.564;2022-09-16T07:48:31;16.30;62.00
53962;DHT22;39868;53.398;6.564;2022-09-16T07:51:02;16.30;62.10
53962;DHT22;39868;53.398;6.564;2022-09-16T07:53:30;16.30;62.90
53962;DHT22;39868;53.398;6.564;2022-09-16T07:56:04;16.30;62.10
53962;DHT22;39868;53.398;6.564;2022-09-16T07:58:32;16.40;62.10
53962;DHT22;39868;53.398;6.564;2022-09-16T08:01:00;16.40;63.10
53962;DHT22;39868;53.398;6.564;2022-09-16T08:03:31;16.50;62.60
53962;DHT22;39868;53.398;6.564;2022-09-16T08:06:02;16.50;63.20
53962;DHT22;39868;53.398;6.564;2022-09-16T08:08:30;16.60;63.40
53962;DHT22;39868;53.398;6.564;2022-09-16T08:10:58;16.70;63.60
53962;DHT22;39868;53.398;6.564;2022-09-16T08:13:26;16.70;63.10
53962;DHT22;39868;53.398;6.564;2022-09-16T08:15:58;16.80;62.00
53962;DHT22;39868;53.398;6.564;2022-09-16T08:18:26;16.90;61.60
53962;DHT22;39868;53.398;6.564;2022-09-16T08:20:53;16.90;61.60
53962;DHT22;39868;53.398;6.564;2022-09-16T08:23:21;17.00;61.60
53962;DHT22;39868;53.398;6.564;2022-09-16T08:25:58;17.10;62.70
53962;DHT22;39868;53.398;6.564;2022-09-16T08:28:26;17.20;63.10
53962;DHT22;39868;53.398;6.564;2022-09-16T08:31:14;17.20;62.50
53962;DHT22;39868;53.398;6.564;2022-09-16T08:33:42;17.30;62.10
53962;DHT22;39868;53.398;6.564;2022-09-16T08:36:11;17.30;62.00
53962;DHT22;39868;53.398;6.564;2022-09-16T08:38:40;17.40;62.40
53962;DHT22;39868;53.398;6.564;2022-09-16T08:46:50;17.50;61.80
53962;DHT22;39868;53.398;6.564;2022-09-16T08:51:53;17.60;61.60
53962;DHT22;39868;53.398;6.564;2022-09-16T08:56:48;17.60;61.90
53962;DHT22;39868;53.398;6.564;2022-09-16T08:59:17;17.60;61.70
53962;DHT22;39868;53.398;6.564;2022-09-16T09:01:47;17.60;62.10
53962;DHT22;39868;53.398;6.564;2022-09-16T09:04:16;17.50;62.60
53962;DHT22;39868;53.398;6.564;2022-09-16T09:09:34;17.40;61.40
53962;DHT22;39868;53.398;6.564;2022-09-16T09:12:50;17.30;61.80
53962;DHT22;39868;53.398;6.564;2022-09-16T09:31:02;17.00;63.20
53962;DHT22;39868;53.398;6.564;2022-09-16T09:36:29;16.50;63.70
53962;DHT22;39868;53.398;6.564;2022-09-16T09:41:39;16.20;65.50
53962;DHT22;39868;53.398;6.564;2022-09-16T09:46:42;16.20;66.20
53962;DHT22;39868;53.398;6.564;2022-09-16T09:51:41;16.30;67.00
53962;DHT22;39868;53.398;6.564;2022-09-16T09:54:18;16.30;66.60
53962;DHT22;39868;53.398;6.564;2022-09-16T09:56:47;16.40;64.90
53962;DHT22;39868;53.398;6.564;2022-09-16T09:59:34;16.50;66.00
53962;DHT22;39868;53.398;6.564;2022-09-16T10:02:06;16.60;65.70
53962;DHT22;39868;53.398;6.564;2022-09-16T10:04:39;16.80;65.80
53962;DHT22;39868;53.398;6.564;2022-09-16T10:07:06;16.90;65.70
53962;DHT22;39868;53.398;6.564;2022-09-16T10:09:35;17.00;65.80
53962;DHT22;39868;53.398;6.564;2022-09-16T10:12:02;17.10;65.90
53962;DHT22;39868;53.398;6.564;2022-09-16T10:17:01;17.30;65.50
53962;DHT22;39868;53.398;6.564;2022-09-16T10:19:37;17.40;64.80
53962;DHT22;39868;53.398;6.564;2022-09-16T10:22:10;17.50;65.30
53962;DHT22;39868;53.398;6.564;2022-09-16T10:24:38;17.60;65.00
53962;DHT22;39868;53.398;6.564;2022-09-16T10:27:18;17.70;64.40
53962;DHT22;39868;53.398;6.564;2022-09-16T10:29:46;17.70;62.80
53962;DHT22;39868;53.398;6.564;2022-09-16T10:32:17;17.80;63.50
53962;DHT22;39868;53.398;6.564;2022-09-16T10:34:45;17.90;63.10
53962;DHT22;39868;53.398;6.564;2022-09-16T10:37:15;18.00;62.80
53962;DHT22;39868;53.398;6.564;2022-09-16T10:39:44;18.00;62.40
53962;DHT22;39868;53.398;6.564;2022-09-16T10:42:17;18.10;60.30
53962;DHT22;39868;53.398;6.564;2022-09-16T10:44:45;18.20;61.70
53962;DHT22;39868;53.398;6.564;2022-09-16T10:47:15;18.10;62.00
53962;DHT22;39868;53.398;6.564;2022-09-16T10:49:44;18.20;61.20
53962;DHT22;39868;53.398;6.564;2022-09-16T10:52:17;18.20;61.10
53962;DHT22;39868;53.398;6.564;2022-09-16T10:54:44;18.10;60.70
53962;DHT22;39868;53.398;6.564;2022-09-16T10:57:33;18.10;60.30
53962;DHT22;39868;53.398;6.564;2022-09-16T11:00:15;18.10;60.00
53962;DHT22;39868;53.398;6.564;2022-09-16T11:21:55;18.60;60.60
53962;DHT22;39868;53.398;6.564;2022-09-16T11:27:03;18.70;59.90
53962;DHT22;39868;53.398;6.564;2022-09-16T11:42:42;18.70;57.90
53962;DHT22;39868;53.398;6.564;2022-09-16T11:48:22;18.60;58.40
53962;DHT22;39868;53.398;6.564;2022-09-16T12:01:12;18.50;57.50
53962;DHT22;39868;53.398;6.564;2022-09-16T12:03:46;18.50;57.50
53962;DHT22;39868;53.398;6.564;2022-09-16T12:06:17;18.40;56.60
53962;DHT22;39868;53.398;6.564;2022-09-16T12:08:53;18.40;56.70
53962;DHT22;39868;53.398;6.564;2022-09-16T12:11:31;18.40;56.60
53962;DHT22;39868;53.398;6.564;2022-09-16T12:14:12;18.40;56.80
53962;DHT22;39868;53.398;6.564;2022-09-16T12:16:48;18.40;58.70
53962;DHT22;39868;53.398;6.564;2022-09-16T12:19:28;18.40;59.50
53962;DHT22;39868;53.398;6.564;2022-09-16T12:22:03;18.30;60.30
53962;DHT22;39868;53.398;6.564;2022-09-16T12:32:04;18.00;60.10
53962;DHT22;39868;53.398;6.564;2022-09-16T12:34:34;18.00;61.30
53962;DHT22;39868;53.398;6.564;2022-09-16T12:37:47;18.00;61.10
53962;DHT22;39868;53.398;6.564;2022-09-16T12:39:54;17.90;60.30
53962;DHT22;39868;53.398;6.564;2022-09-16T12:50:46;17.90;61.90
53962;DHT22;39868;53.398;6.564;2022-09-16T13:04:18;17.40;63.70
53962;DHT22;39868;53.398;6.564;2022-09-16T13:06:47;17.40;65.00
53962;DHT22;39868;53.398;6.564;2022-09-16T13:09:19;17.30;65.20
53962;DHT22;39868;53.398;6.564;2022-09-16T13:11:55;17.30;65.20
53962;DHT22;39868;53.398;6.564;2022-09-16T13:17:13;17.10;66.80
53962;DHT22;39868;53.398;6.564;2022-09-16T13:19:44;17.00;66.60
53962;DHT22;39868;53.398;6.564;2022-09-16T13:24:41;16.90;65.80
53962;DHT22;39868;53.398;6.564;2022-09-16T13:29:50;16.80;65.20
53962;DHT22;39868;53.398;6.564;2022-09-16T13:32:24;16.80;65.60
53962;DHT22;39868;53.398;6.564;2022-09-16T13:35:02;16.80;66.20
53962;DHT22;39868;53.398;6.564;2022-09-16T13:37:30;16.80;66.70
53962;DHT22;39868;53.398;6.564;2022-09-16T13:40:07;16.80;66.70
53962;DHT22;39868;53.398;6.564;2022-09-16T13:42:34;16.80;66.20
53962;DHT22;39868;53.398;6.564;2022-09-16T13:45:02;16.80;65.80
53962;DHT22;39868;53.398;6.564;2022-09-16T13:47:30;16.90;66.00
53962;DHT22;39868;53.398;6.564;2022-09-16T13:50:09;16.90;65.70
53962;DHT22;39868;53.398;6.564;2022-09-16T13:52:37;17.00;65.80
53962;DHT22;39868;53.398;6.564;2022-09-16T13:55:07;17.10;65.50
53962;DHT22;39868;53.398;6.564;2022-09-16T14:00:20;17.10;66.30
53962;DHT22;39868;53.398;6.564;2022-09-16T14:03:10;17.20;66.70
53962;DHT22;39868;53.398;6.564;2022-09-16T14:10:54;17.00;67.30
53962;DHT22;39868;53.398;6.564;2022-09-16T14:13:23;16.90;68.20
53962;DHT22;39868;53.398;6.564;2022-09-16T14:15:53;16.90;68.80
53962;DHT22;39868;53.398;6.564;2022-09-16T14:18:23;16.80;69.70
53962;DHT22;39868;53.398;6.564;2022-09-16T14:23:22;16.80;70.20
53962;DHT22;39868;53.398;6.564;2022-09-16T14:25:50;16.70;70.60
53962;DHT22;39868;53.398;6.564;2022-09-16T14:28:22;16.70;71.00
53962;DHT22;39868;53.398;6.564;2022-09-16T14:30:54;16.70;71.60
53962;DHT22;39868;53.398;6.564;2022-09-16T14:33:29;16.80;71.30
53962;DHT22;39868;53.398;6.564;2022-09-16T14:35:59;16.90;71.30
53962;DHT22;39868;53.398;6.564;2022-09-16T14:38:34;16.90;71.30
53962;DHT22;39868;53.398;6.564;2022-09-16T14:41:11;17.00;71.50
53962;DHT22;39868;53.398;6.564;2022-09-16T14:43:40;17.10;71.50
53962;DHT22;39868;53.398;6.564;2022-09-16T14:46:07;17.10;71.00
53962;DHT22;39868;53.398;6.564;2022-09-16T14:48:36;17.20;71.30
53962;DHT22;39868;53.398;6.564;2022-09-16T14:51:08;17.20;71.10
53962;DHT22;39868;53.398;6.564;2022-09-16T14:53:39;17.30;70.90
53962;DHT22;39868;53.398;6.564;2022-09-16T14:56:26;17.30;70.60
53962;DHT22;39868;53.398;6.564;2022-09-16T14:58:54;17.30;71.20
53962;DHT22;39868;53.398;6.564;2022-09-16T15:01:24;17.20;71.40
53962;DHT22;39868;53.398;6.564;2022-09-16T15:06:24;16.90;72.30
53962;DHT22;39868;53.398;6.564;2022-09-16T15:11:28;16.50;72.60
53962;DHT22;39868;53.398;6.564;2022-09-16T15:14:15;16.30;73.30
53962;DHT22;39868;53.398;6.564;2022-09-16T15:16:44;16.10;73.40
53962;DHT22;39868;53.398;6.564;2022-09-16T15:19:17;16.00;74.30
53962;DHT22;39868;53.398;6.564;2022-09-16T15:21:47;15.80;75.10
53962;DHT22;39868;53.398;6.564;2022-09-16T15:24:17;15.70;76.00
53962;DHT22;39868;53.398;6.564;2022-09-16T15:26:45;15.70;76.70
53962;DHT22;39868;53.398;6.564;2022-09-16T15:31:43;15.50;77.30
53962;DHT22;39868;53.398;6.564;2022-09-16T15:36:52;15.40;78.00
53962;DHT22;39868;53.398;6.564;2022-09-16T15:39:23;15.40;78.10
53962;DHT22;39868;53.398;6.564;2022-09-16T15:44:56;15.40;78.50
53962;DHT22;39868;53.398;6.564;2022-09-16T15:48:10;15.40;79.10
53962;DHT22;39868;53.398;6.564;2022-09-16T15:50:15;15.50;79.00
53962;DHT22;39868;53.398;6.564;2022-09-16T15:55:34;15.50;79.30
53962;DHT22;39868;53.398;6.564;2022-09-16T15:58:13;15.60;79.40
53962;DHT22;39868;53.398;6.564;2022-09-16T16:01:02;15.60;78.90
53962;DHT22;39868;53.398;6.564;2022-09-16T16:03:34;15.70;79.40
53962;DHT22;39868;53.398;6.564;2022-09-16T16:06:02;15.70;79.00
53962;DHT22;39868;53.398;6.564;2022-09-16T16:08:38;15.80;79.20
53962;DHT22;39868;53.398;6.564;2022-09-16T16:11:10;15.80;79.80
53962;DHT22;39868;53.398;6.564;2022-09-16T16:13:38;15.90;79.70
53962;DHT22;39868;53.398;6.564;2022-09-16T16:16:06;15.90;79.20
53962;DHT22;39868;53.398;6.564;2022-09-16T16:18:35;15.90;78.70
53962;DHT22;39868;53.398;6.564;2022-09-16T16:21:10;15.90;79.80
53962;DHT22;39868;53.398;6.564;2022-09-16T16:23:38;15.90;78.90
53962;DHT22;39868;53.398;6.564;2022-09-16T16:26:06;15.90;78.40
53962;DHT22;39868;53.398;6.564;2022-09-16T16:28:34;15.80;78.90
53962;DHT22;39868;53.398;6.564;2022-09-16T16:33:39;15.80;79.50
53962;DHT22;39868;53.398;6.564;2022-09-16T16:36:11;15.70;79.60
53962;DHT22;39868;53.398;6.564;2022-09-16T16:38:39;15.80;80.00
53962;DHT22;39868;53.398;6.564;2022-09-16T16:41:07;15.70;79.20
53962;DHT22;39868;53.398;6.564;2022-09-16T16:43:35;15.70;79.30
53962;DHT22;39868;53.398;6.564;2022-09-16T16:46:02;15.70;79.10
53962;DHT22;39868;53.398;6.564;2022-09-16T16:48:30;15.60;79.00
53962;DHT22;39868;53.398;6.564;2022-09-16T16:50:58;15.60;79.30
53962;DHT22;39868;53.398;6.564;2022-09-16T16:53:26;15.60;79.50
53962;DHT22;39868;53.398;6.564;2022-09-16T16:56:02;15.50;79.30
53962;DHT22;39868;53.398;6.564;2022-09-16T16:58:30;15.50;79.70
53962;DHT22;39868;53.398;6.564;2022-09-16T17:01:12;15.50;79.80
53962;DHT22;39868;53.398;6.564;2022-09-16T17:03:42;15.40;80.00
53962;DHT22;39868;53.398;6.564;2022-09-16T17:06:12;15.40;80.10
53962;DHT22;39868;53.398;6.564;2022-09-16T17:08:39;15.40;80.30
53962;DHT22;39868;53.398;6.564;2022-09-16T17:11:08;15.40;80.30
53962;DHT22;39868;53.398;6.564;2022-09-16T17:13:40;15.50;80.60
53962;DHT22;39868;53.398;6.564;2022-09-16T17:16:09;15.50;80.90
53962;DHT22;39868;53.398;6.564;2022-09-16T17:18:38;15.50;81.20
53962;DHT22;39868;53.398;6.564;2022-09-16T17:21:06;15.50;80.90
53962;DHT22;39868;53.398;6.564;2022-09-16T17:23:34;15.50;80.70
53962;DHT22;39868;53.398;6.564;2022-09-16T17:26:02;15.40;80.70
53962;DHT22;39868;53.398;6.564;2022-09-16T17:28:30;15.40;80.80
53962;DHT22;39868;53.398;6.564;2022-09-16T17:30:58;15.40;80.90
53962;DHT22;39868;53.398;6.564;2022-09-16T17:33:25;15.40;81.00
53962;DHT22;39868;53.398;6.564;2022-09-16T17:36:03;15.40;81.30
53962;DHT22;39868;53.398;6.564;2022-09-16T17:38:31;15.40;81.30
53962;DHT22;39868;53.398;6.564;2022-09-16T17:41:00;15.30;81.20
53962;DHT22;39868;53.398;6.564;2022-09-16T17:43:28;15.30;81.20
53962;DHT22;39868;53.398;6.564;2022-09-16T17:45:59;15.20;81.10
53962;DHT22;39868;53.398;6.564;2022-09-16T17:48:26;15.20;80.90
53962;DHT22;39868;53.398;6.564;2022-09-16T17:50:54;15.20;80.90
53962;DHT22;39868;53.398;6.564;2022-09-16T17:53:21;15.10;81.00
53962;DHT22;39868;53.398;6.564;2022-09-16T17:55:49;15.10;81.20
53962;DHT22;39868;53.398;6.564;2022-09-16T17:58:17;15.10;81.40
53962;DHT22;39868;53.398;6.564;2022-09-16T18:00:44;15.10;81.40
53962;DHT22;39868;53.398;6.564;2022-09-16T18:03:12;15.10;81.20
53962;DHT22;39868;53.398;6.564;2022-09-16T18:05:39;15.10;81.50
53962;DHT22;39868;53.398;6.564;2022-09-16T18:08:07;15.10;81.30
53962;DHT22;39868;53.398;6.564;2022-09-16T18:10:35;15.10;81.40
53962;DHT22;39868;53.398;6.564;2022-09-16T18:13:03;15.10;81.40
53962;DHT22;39868;53.398;6.564;2022-09-16T18:15:30;15.10;81.50
53962;DHT22;39868;53.398;6.564;2022-09-16T18:17:59;15.10;81.70
53962;DHT22;39868;53.398;6.564;2022-09-16T18:20:26;15.10;82.30
53962;DHT22;39868;53.398;6.564;2022-09-16T18:22:54;15.10;82.40
53962;DHT22;39868;53.398;6.564;2022-09-16T18:25:21;15.00;82.50
53962;DHT22;39868;53.398;6.564;2022-09-16T18:27:50;15.00;82.40
53962;DHT22;39868;53.398;6.564;2022-09-16T18:30:18;15.00;82.20
53962;DHT22;39868;53.398;6.564;2022-09-16T18:32:47;15.00;82.30
53962;DHT22;39868;53.398;6.564;2022-09-16T18:35:14;15.00;82.30
53962;DHT22;39868;53.398;6.564;2022-09-16T18:37:41;15.00;82.40
53962;DHT22;39868;53.398;6.564;2022-09-16T18:40:10;15.00;82.70
53962;DHT22;39868;53.398;6.564;2022-09-16T18:42:38;15.00;82.80
53962;DHT22;39868;53.398;6.564;2022-09-16T18:45:06;14.90;82.40
53962;DHT22;39868;53.398;6.564;2022-09-16T18:47:33;14.90;82.30
53962;DHT22;39868;53.398;6.564;2022-09-16T18:50:01;14.80;82.10
53962;DHT22;39868;53.398;6.564;2022-09-16T18:52:28;14.90;82.00
53962;DHT22;39868;53.398;6.564;2022-09-16T18:54:56;14.80;82.40
53962;DHT22;39868;53.398;6.564;2022-09-16T18:57:23;14.70;82.60
53962;DHT22;39868;53.398;6.564;2022-09-16T18:59:51;14.70;82.60
53962;DHT22;39868;53.398;6.564;2022-09-16T19:02:18;14.70;82.50
53962;DHT22;39868;53.398;6.564;2022-09-16T19:04:46;14.70;82.50
53962;DHT22;39868;53.398;6.564;2022-09-16T19:07:13;14.70;82.60
53962;DHT22;39868;53.398;6.564;2022-09-16T19:09:41;14.70;82.80